Hilo, HI

03:35 PM HST on august 25, 2016 (GMT -1000)
Sunrise Estates | | Change Station

Elev 413 ft 19.70 °N, 155.10 °W | Updated 27 seconds ago

Partly Cloudy
Cer parţial noros
82.6 °F
Feels Like 86 °F
N
2.5
Vânt variabil Vânt from SE
Gusts 4.9 mph

astăzi
High -- | Low -- °F
--% Chance of Precip.
Ieri
High -- | Low -- °F
Precip. -- inch
Presiunea 30.02 inch
Vizibilitatea 10.0 mile
Nori Few 3500 ft
Few 10000 ft
Few 20000 ft
Indicele de căldură 86 °F
Punctul de rouă 68 °F
Umiditatea 61%
Precipitaţii 0.04 inch
Adâncimea zăpezii Not available.
6:03 AM 6:40 PM
Ultimul pătrar, 40% visible
METAR PHTO 260053Z 04010KT 10SM FEW035 FEW100 FEW200 29/22 A3002 RMK AO2 SLP164 T02890217
Presiunea 30.02 inch
Vizibilitatea 10.0 mile
Nori Few 3500 ft
Few 10000 ft
Few 20000 ft
Indicele de căldură 86 °F
Punctul de rouă 68 °F
Umiditatea 61%
Precipitaţii 0.04 inch
Adâncimea zăpezii Not available.
6:03 AM 6:40 PM
Ultimul pătrar, 40% visible
METAR PHTO 260053Z 04010KT 10SM FEW035 FEW100 FEW200 29/22 A3002 RMK AO2 SLP164 T02890217

10-Day Weather Forecast

Almanac

Astronomie

Aug. 25, 2016 Răsărit Apus
Timpul Actual
Crepusculul Civil
Crepusculul nautic
Răsărit Astronomic
Luna
Durata zilei lumină
Lungimea zilei
Tomorrow will be .
, % of the Moon is Illuminated

Extremele de azi

State Highs State Lows

Community

WunderPhotos

Upload Photos

1,935,017 photos uploaded!

WunderBlog® & News

Nearby

Calitatea aerului

  Calitatea aerului Index de calitate a aerului Poluat
Not available.

Adâncimea zapezii

Station Depth Elevation

Earthquake Activity

Oraş Distance Mag. Time & Date
Minimum magnitude displayed is 2.5.

Coastal Water Temperatures

Locul Temperatura

Stations

Nearby Weather Stations

Locaţia staţiei Temp Vânt rece Punctul de rouă Umiditatea Vânt Precip. Elev Actualizare Type
                   

Watches & Warnings

There are currently no watches in effect.